Tarlton, Ohio
Current Conditions -  °F | °C
As of 8:53 PM on Saturday 20 Dec 2014 (Local Time) from KLHQ Reporting Station
Overcast Overcast  
Wind Chill:   Ceiling: 1900
Heat Index:   Visibility: 7mi
Dew Point: -3°   Wind: 3mph
Humidity: 51%   Direction: 310°NW
Pressure: 30.29"   Gusts: NA
Location:  39.56°N, 82.78°W
Report Text: KLHQ 210153Z AUTO 31003KT 7SM OVC019 06/M03 A3029 RMK AO2 SLP262 T00611033
Loading
Personal Weather Stations






























Interactive Weather Map New forecast layout! Learn more

10-Day Weather Forecast

Advertisements
Track Severe Weather on mobile